Terminal Aerodrome Forecast
Issued by NWS Cleveland, OH

Home | Current Version | Previous Version | Text Only | Print | Product List | Glossary On
Versions: 1 2 3 4 5 6 7 8 9 10 11 12 13 14 15 16 17 18 19 20 21 22 23 24
000
FTUS41 KCLE 241100
TAFCAK
TAF
KCAK 241137Z 2412/2512 VRB03KT P6SM BKN250
      TEMPO 2412/2414 4SM BR
     FM241400 25005KT P6SM BKN250
     FM241900 25007KT P6SM SCT250
     FM242200 23003KT P6SM SCT060
     FM251000 21006KT P6SM BKN250=

USA.gov is the U.S. government's official web portal to all federal, state and local government web resources and services.